Lecko — PBKR — position and weather

sailwx.info

Track history (hours):
 
Tides and Currents Weather Stations Pressure Air Temp Water Temp Dewpoint Dewpoint Depression Visibility Wind Speed Wind Dir Waves Ship Positions

Lecko

Last reported at 2017-Dec-10 17:24 UTC. Time now 2017-Dec-12 10:36 UTC.
Position N 58°36' E 012°41'.

Length 89 m; draft 5.4 m.

Type: Cargo ship. MMSI: 244063000.

Date/timePositionNaut miles runAvg speedWind from/ knotsBaromVisibWave heightAir tempDewpointWater temp
2017-Dec-10 17:24N 58°36' E 012°41'410.5
2017-Dec-10 17:00N 58°33' E 012°36'510.3
2017-Dec-10 16:30N 58°29' E 012°30'5 9.9
2017-Dec-10 16:00N 58°26' E 012°22'4 7.5
2017-Dec-10 15:30N 58°23' E 012°19'2 5.0
2017-Dec-10 15:00N 58°21' E 012°21'0 0.8
2017-Dec-10 14:30N 58°20' E 012°21'3 6.5
2017-Dec-10 14:00N 58°18' E 012°18'2 3.7
2017-Dec-10 13:30N 58°16' E 012°16'0 0.5
2017-Dec-10 13:00N 58°16' E 012°15'0 0.2
2017-Dec-10 12:30N 58°16' E 012°15'1 1.7
2017-Dec-10 12:00N 58°15' E 012°14'4 7.5
2017-Dec-10 11:30N 58°13' E 012°09'4 7.4
2017-Dec-10 11:00N 58°09' E 012°08'1 1.9
2017-Dec-10 10:30N 58°08' E 012°07'3 5.3
2017-Dec-10 10:00N 58°06' E 012°09'5 7.1
2017-Dec-10 09:21N 58°01' E 012°09'3 7.5
2017-Dec-10 09:01N 57°59' E 012°08'4 7.2
2017-Dec-10 08:30N 57°56' E 012°04'4 8.1
2017-Dec-10 08:00N 57°52' E 012°01'3 6.2
2017-Dec-10 07:30N 57°49' E 012°01'3 6.1
2017-Dec-10 07:00N 57°46' E 012°00'3 5.6
2017-Dec-10 06:30N 57°43' E 011°58'4 7.5
2017-Dec-10 06:00N 57°41' E 011°52'4 7.3
2017-Dec-10 05:30N 57°40' E 011°46'4 7.7
2017-Dec-10 05:00N 57°37' E 011°41'4 8.1
2017-Dec-10 04:30N 57°34' E 011°36'3 6.8
2017-Dec-10 04:00N 57°33' E 011°30'4 7.1
2017-Dec-10 03:30N 57°32' E 011°24'4 7.3
2017-Dec-10 03:00N 57°31' E 011°18'4 8.0
2017-Dec-10 02:30N 57°29' E 011°11'4 7.7
2017-Dec-10 02:00N 57°28' E 011°04'4 8.1
2017-Dec-10 01:30N 57°26' E 010°57'4 8.6
2017-Dec-10 01:00N 57°24' E 010°50'87 6.3
2017-Dec-09 11:09N 56°14' E 012°26'2 5.9
2017-Dec-09 10:45N 56°12' E 012°28'2 6.8
2017-Dec-09 10:30N 56°10' E 012°29'4 7.1
2017-Dec-09 10:00N 56°07' E 012°33'4 7.3
2017-Dec-09 09:30N 56°05' E 012°37'4 7.2
2017-Dec-09 09:00N 56°02' E 012°40'4 8.8
2017-Dec-09 08:30N 55°58' E 012°43'4 8.3
2017-Dec-09 08:00N 55°54' E 012°44'4 8.5
2017-Dec-09 07:30N 55°49' E 012°44'4 8.4
2017-Dec-09 07:00N 55°45' E 012°42'4 8.5
2017-Dec-09 06:30N 55°41' E 012°41'4 7.9
2017-Dec-09 06:00N 55°37' E 012°42'4 7.6
2017-Dec-09 05:31N 55°33' E 012°42'3 6.8
2017-Dec-09 05:00N 55°30' E 012°43'4 8.0
2017-Dec-09 04:30N 55°26' E 012°42'4 8.4
2017-Dec-09 04:00N 55°22' E 012°41'4 8.2
2017-Dec-09 03:30N 55°18' E 012°40'4 8.2
2017-Dec-09 03:00N 55°13' E 012°40'39 8.7
2017-Dec-08 22:28N 54°36' E 012°21'13 9.2
2017-Dec-08 21:04N 54°24' E 012°10'1 9.6
2017-Dec-08 21:00N 54°24' E 012°09'5 9.5
2017-Dec-08 20:30N 54°21' E 012°03'5 9.3
2017-Dec-08 20:00N 54°18' E 011°57'22 9.3
2017-Dec-08 17:41N 54°05' E 011°27'2 8.6
2017-Dec-08 17:30N 54°04' E 011°27'5 9.7
2017-Dec-08 17:00N 54°01' E 011°20'4 8.2
2017-Dec-08 16:30N 53°57' E 011°23'4 7.5
2017-Dec-08 16:00N 53°54' E 011°27'1 1.0
2017-Dec-08 15:28N 53°54' E 011°28'0 0.0
2017-Dec-08 15:00N 53°54' E 011°28'0 0.0
2017-Dec-08 14:30N 53°54' E 011°28'0 0.0
2017-Dec-08 14:00N 53°54' E 011°28'0 0.0
2017-Dec-08 13:30N 53°54' E 011°28'0 0.0
2017-Dec-08 13:00N 53°54' E 011°28'0 0.0
2017-Dec-08 12:30N 53°54' E 011°28'0 0.0
2017-Dec-08 12:00N 53°54' E 011°28'0 0.0
2017-Dec-08 11:30N 53°54' E 011°28'0 0.0
2017-Dec-08 11:00N 53°54' E 011°28'0 0.0
2017-Dec-08 10:30N 53°54' E 011°28'0 0.0
2017-Dec-08 10:00N 53°54' E 011°28'0 0.0
2017-Dec-08 09:30N 53°54' E 011°28'0 0.0
2017-Dec-08 09:00N 53°54' E 011°28'0 0.0
2017-Dec-08 08:30N 53°54' E 011°28'0 0.0
2017-Dec-08 08:00N 53°54' E 011°28'0 0.0
2017-Dec-08 07:30N 53°54' E 011°28'0 0.0
2017-Dec-08 07:00N 53°54' E 011°28'0 0.0
2017-Dec-08 06:30N 53°54' E 011°28'0 0.0
2017-Dec-08 06:00N 53°54' E 011°28'0 0.0
2017-Dec-08 05:30N 53°54' E 011°28'0 0.0
2017-Dec-08 05:00N 53°54' E 011°28'0 0.0
2017-Dec-08 04:30N 53°54' E 011°28'0 0.0
2017-Dec-08 04:00N 53°54' E 011°28'0 0.0
2017-Dec-08 03:30N 53°54' E 011°28'0 0.0
2017-Dec-08 03:00N 53°54' E 011°28'0 0.0
2017-Dec-08 02:29N 53°54' E 011°28'0 0.0
2017-Dec-08 02:00N 53°54' E 011°28'0 0.0
2017-Dec-08 01:30N 53°54' E 011°28'0 0.0
2017-Dec-08 01:00N 53°54' E 011°28'0 0.0
2017-Dec-08 00:30N 53°54' E 011°28'0 0.0
2017-Dec-08 00:00N 53°54' E 011°28'0 0.0
2017-Dec-07 23:30N 53°54' E 011°28'0 0.0
2017-Dec-07 23:00N 53°54' E 011°28'0 0.0
2017-Dec-07 22:30N 53°54' E 011°28'0 0.0
2017-Dec-07 22:00N 53°54' E 011°28'0 0.0
2017-Dec-07 21:30N 53°54' E 011°28'0 0.0
2017-Dec-07 21:00N 53°54' E 011°28'0 0.0
2017-Dec-07 20:30N 53°54' E 011°28'0 0.0
2017-Dec-07 20:00N 53°54' E 011°28'0 0.0
2017-Dec-07 19:30N 53°54' E 011°28'0 0.0
2017-Dec-07 19:00N 53°54' E 011°28'0 0.0
2017-Dec-07 18:30N 53°54' E 011°28'0 0.0
2017-Dec-07 18:00N 53°54' E 011°28'0 0.0
2017-Dec-07 17:30N 53°54' E 011°28'0 0.0
2017-Dec-07 17:00N 53°54' E 011°28'0 0.1
2017-Dec-07 16:30N 53°54' E 011°28'1 3.0
2017-Dec-07 16:00N 53°55' E 011°26'5 9.7
2017-Dec-07 15:30N 53°59' E 011°21'4 8.6
2017-Dec-07 15:00N 54°03' E 011°25'23 9.9
2017-Dec-07 12:44N 54°25' E 011°22'210.0
2017-Dec-07 12:30N 54°28' E 011°21'510.1
2017-Dec-07 12:00N 54°32' E 011°19'611.4
2017-Dec-07 11:30N 54°34' E 011°09'611.2
2017-Dec-07 11:00N 54°35' E 010°60'611.1
2017-Dec-07 10:30N 54°34' E 010°50'611.0
2017-Dec-07 10:00N 54°34' E 010°41'31 6.8
2017-Dec-07 05:23N 54°22' E 009°51'3 7.9
2017-Dec-07 04:59N 54°21' E 009°46'4 8.0
2017-Dec-07 04:30N 54°18' E 009°42'3 6.3
2017-Dec-07 04:00N 54°16' E 009°37'1 1.6
2017-Dec-07 03:31N 54°15' E 009°37'3 5.9
2017-Dec-07 03:00N 54°12' E 009°34'4 8.3
2017-Dec-07 02:30N 54°11' E 009°28'2 4.0
2017-Dec-07 02:00N 54°10' E 009°25'5 7.3
2017-Dec-07 01:22N 54°06' E 009°20'3 8.3
2017-Dec-07 01:00N 54°03' E 009°18'2 3.2
2017-Dec-07 00:30N 54°02' E 009°18'2 4.3
2017-Dec-07 00:00N 53°60' E 009°17'2 4.4
2017-Dec-06 23:31N 53°58' E 009°15'4 7.2
2017-Dec-06 23:01N 53°55' E 009°11'2 4.1
2017-Dec-06 22:30N 53°54' E 009°09'0 0.2
2017-Dec-06 22:01N 53°54' E 009°09'2 3.5
2017-Dec-06 21:31N 53°53' E 009°06'2 4.3
2017-Dec-06 21:00N 53°52' E 009°02'  
2017-Dec-04 10:24N 53°30' E 008°31'0 0.0
2017-Dec-04 10:00N 53°30' E 008°31'0 0.0
2017-Dec-04 09:30N 53°30' E 008°31'0 0.0
2017-Dec-04 09:00N 53°30' E 008°31'0 0.0
2017-Dec-04 08:30N 53°30' E 008°31'0 0.0
2017-Dec-04 08:00N 53°30' E 008°31'0 0.0
2017-Dec-04 07:30N 53°30' E 008°31'0 0.0
2017-Dec-04 07:00N 53°30' E 008°31'0 0.0
2017-Dec-04 06:30N 53°30' E 008°31'0 0.0
2017-Dec-04 06:00N 53°30' E 008°31'0 0.0
2017-Dec-04 05:30N 53°30' E 008°31'0 0.0
2017-Dec-04 05:00N 53°30' E 008°31'0 0.0
2017-Dec-04 04:30N 53°30' E 008°31'0 0.0
2017-Dec-04 04:00N 53°30' E 008°31'0 0.0
2017-Dec-04 03:30N 53°30' E 008°31'0 0.0
2017-Dec-04 03:00N 53°30' E 008°31'0 0.0
2017-Dec-04 02:30N 53°30' E 008°31'0 0.0
2017-Dec-04 02:00N 53°30' E 008°31'0 0.0
2017-Dec-04 01:30N 53°30' E 008°31'0 0.0
2017-Dec-04 01:00N 53°30' E 008°31'0 0.0
2017-Dec-04 00:30N 53°30' E 008°31'0 0.0
2017-Dec-04 00:00N 53°30' E 008°31'0 0.0
2017-Dec-03 23:30N 53°30' E 008°31'0 0.0
2017-Dec-03 23:00N 53°30' E 008°31'0 0.0
2017-Dec-03 22:30N 53°30' E 008°31'0 0.0
2017-Dec-03 22:00N 53°30' E 008°31'0 0.0
2017-Dec-03 21:30N 53°30' E 008°31'0 0.0
2017-Dec-03 21:00N 53°30' E 008°31'0 0.0
2017-Dec-03 20:30N 53°30' E 008°31'0 0.0
2017-Dec-03 20:00N 53°30' E 008°31'0 0.0
2017-Dec-03 19:30N 53°30' E 008°31'0 0.0
2017-Dec-03 19:00N 53°30' E 008°31'0 0.0
2017-Dec-03 18:30N 53°30' E 008°31'0 0.0
2017-Dec-03 18:00N 53°30' E 008°31'0 0.0
2017-Dec-03 17:30N 53°30' E 008°31'0 0.0
2017-Dec-03 17:00N 53°30' E 008°31'0 0.0
2017-Dec-03 16:30N 53°30' E 008°31'0 0.0
2017-Dec-03 16:00N 53°30' E 008°31'0 0.0
2017-Dec-03 15:30N 53°30' E 008°31'0 0.0
2017-Dec-03 15:00N 53°30' E 008°31'0 0.0
2017-Dec-03 14:30N 53°30' E 008°31'0 0.0
2017-Dec-03 14:00N 53°30' E 008°31'0 0.0
2017-Dec-03 13:30N 53°30' E 008°31'0 0.0
2017-Dec-03 13:00N 53°30' E 008°31'0 0.0
2017-Dec-03 12:30N 53°30' E 008°31'0 0.0
2017-Dec-03 12:00N 53°30' E 008°31'0 0.0
2017-Dec-03 11:30N 53°30' E 008°31'0 0.0
2017-Dec-03 11:00N 53°30' E 008°31'0 0.0
2017-Dec-03 10:30N 53°30' E 008°31'0 0.0
2017-Dec-03 10:00N 53°30' E 008°31'0 0.0
2017-Dec-03 09:30N 53°30' E 008°31'0 0.0
2017-Dec-03 09:00N 53°30' E 008°31'0 0.0
2017-Dec-03 08:30N 53°30' E 008°31'0 0.0
2017-Dec-03 08:00N 53°30' E 008°31'0 0.0
2017-Dec-03 07:30N 53°30' E 008°31'0 0.0
2017-Dec-03 07:00N 53°30' E 008°31'0 0.0
2017-Dec-03 06:30N 53°30' E 008°31'0 0.0
2017-Dec-03 06:00N 53°30' E 008°31'0 0.0
2017-Dec-03 05:30N 53°30' E 008°31'0 0.0
2017-Dec-03 05:00N 53°30' E 008°31'0 0.0
2017-Dec-03 04:30N 53°30' E 008°31'0 0.0
2017-Dec-03 04:00N 53°30' E 008°31'0 0.0
2017-Dec-03 03:30N 53°30' E 008°31'0 0.0
2017-Dec-03 03:00N 53°30' E 008°31'0 0.0
2017-Dec-03 02:30N 53°30' E 008°31'0 0.0
2017-Dec-03 02:00N 53°30' E 008°31'0 0.0
2017-Dec-03 01:30N 53°30' E 008°31'0 0.0
2017-Dec-03 01:00N 53°30' E 008°31'0 0.0
2017-Dec-03 00:30N 53°30' E 008°31'0 0.0
2017-Dec-03 00:00N 53°30' E 008°31'0 0.0
2017-Dec-02 23:30N 53°30' E 008°31'0 0.0
2017-Dec-02 23:00N 53°30' E 008°31'0 0.0
2017-Dec-02 22:30N 53°30' E 008°31'0 0.0
2017-Dec-02 22:00N 53°30' E 008°31'0 0.0
2017-Dec-02 21:27N 53°30' E 008°31'0 0.0
2017-Dec-02 21:00N 53°30' E 008°31'0 0.0
2017-Dec-02 20:27N 53°30' E 008°31'0 0.0
2017-Dec-02 20:00N 53°30' E 008°31'0 0.0
2017-Dec-02 19:30N 53°30' E 008°31'0 0.0
2017-Dec-02 19:00N 53°30' E 008°31'0 0.0
2017-Dec-02 18:30N 53°30' E 008°31'0 0.0
2017-Dec-02 18:00N 53°30' E 008°31'0 0.0
2017-Dec-02 17:30N 53°30' E 008°31'0 0.0
2017-Dec-02 17:00N 53°30' E 008°31'0 0.0
2017-Dec-02 16:30N 53°30' E 008°31'0 0.0
2017-Dec-02 16:00N 53°30' E 008°31'0 0.0
2017-Dec-02 15:30N 53°30' E 008°31'0 0.0
2017-Dec-02 15:00N 53°30' E 008°31'0 0.0
2017-Dec-02 14:30N 53°30' E 008°31'0 0.0
2017-Dec-02 14:00N 53°30' E 008°31'0 0.0
2017-Dec-02 13:30N 53°30' E 008°31'0 0.0
2017-Dec-02 13:00N 53°30' E 008°31'0 0.0
2017-Dec-02 12:30N 53°30' E 008°31'0 0.0
2017-Dec-02 12:00N 53°30' E 008°31'0 0.0
2017-Dec-02 11:30N 53°30' E 008°31'0 0.0
2017-Dec-02 11:00N 53°30' E 008°31'0 0.0
2017-Dec-02 10:30N 53°30' E 008°31'0 0.0
2017-Dec-02 09:59N 53°30' E 008°31'0 0.0
2017-Dec-02 09:30N 53°30' E 008°31'0 0.0
2017-Dec-02 08:59N 53°30' E 008°31'0 0.0
2017-Dec-02 08:30N 53°30' E 008°31'0 0.0
2017-Dec-02 07:59N 53°30' E 008°31'0 0.0
2017-Dec-02 07:29N 53°30' E 008°31'0 0.0
2017-Dec-02 07:00N 53°30' E 008°31'0 0.0
2017-Dec-02 06:29N 53°30' E 008°31'0 0.0
2017-Dec-02 06:00N 53°30' E 008°31'0 0.0
2017-Dec-02 05:26N 53°30' E 008°31'0 0.0
2017-Dec-02 05:00N 53°30' E 008°31'0 0.0
2017-Dec-02 04:29N 53°30' E 008°31'0 0.0
2017-Dec-02 03:59N 53°30' E 008°31'0 0.0
2017-Dec-02 03:29N 53°30' E 008°31'0 0.0
2017-Dec-02 03:00N 53°30' E 008°31'0 0.0
2017-Dec-02 02:30N 53°30' E 008°31'0 0.0
2017-Dec-02 01:53N 53°30' E 008°31'0 0.0
2017-Dec-02 01:27N 53°30' E 008°31'0 0.0
2017-Dec-02 00:59N 53°30' E 008°31'0 0.0
2017-Dec-02 00:29N 53°30' E 008°31'0 0.0
2017-Dec-01 23:59N 53°30' E 008°31'0 0.0
2017-Dec-01 23:30N 53°30' E 008°31'0 0.0
2017-Dec-01 22:59N 53°30' E 008°31'0 0.0
2017-Dec-01 22:29N 53°30' E 008°31'0 0.0
2017-Dec-01 21:59N 53°30' E 008°31'0 0.0
2017-Dec-01 21:29N 53°30' E 008°31'0 0.0
2017-Dec-01 20:59N 53°30' E 008°31'0 0.0
2017-Dec-01 20:30N 53°30' E 008°31'0 0.0
2017-Dec-01 19:59N 53°30' E 008°31'0 0.0
2017-Dec-01 19:29N 53°30' E 008°31'0 0.0
2017-Dec-01 19:00N 53°30' E 008°31'0 0.0
2017-Dec-01 18:30N 53°30' E 008°31'0 0.0
2017-Dec-01 17:59N 53°30' E 008°31'0 0.0
2017-Dec-01 17:30N 53°30' E 008°31'0 0.0
2017-Dec-01 16:59N 53°30' E 008°31'0 0.0
2017-Dec-01 16:29N 53°30' E 008°31'0 0.0
2017-Dec-01 15:59N 53°30' E 008°31'0 0.0
2017-Dec-01 15:29N 53°30' E 008°31'0 0.0
2017-Dec-01 14:59N 53°30' E 008°31'0 0.0
2017-Dec-01 14:29N 53°30' E 008°31'0 0.0
2017-Dec-01 13:59N 53°30' E 008°31'0 0.0
2017-Dec-01 13:26N 53°30' E 008°31'0 0.0
2017-Dec-01 12:59N 53°30' E 008°31'0 0.0
2017-Dec-01 12:29N 53°30' E 008°31'0 0.0
2017-Dec-01 11:59N 53°30' E 008°31'0 0.0
2017-Dec-01 11:30N 53°30' E 008°31'1 2.8
2017-Dec-01 11:00N 53°29' E 008°29'0 0.0
2017-Dec-01 10:30N 53°29' E 008°29'0 0.0
2017-Dec-01 10:00N 53°29' E 008°29'0 0.0
2017-Dec-01 09:30N 53°29' E 008°29'0 0.0
2017-Dec-01 09:00N 53°29' E 008°29'0 0.0
2017-Dec-01 08:30N 53°29' E 008°29'0 0.0
2017-Dec-01 08:00N 53°29' E 008°29'0 0.0
2017-Dec-01 07:30N 53°29' E 008°29'0 0.0
2017-Dec-01 06:59N 53°29' E 008°29'0 0.0
2017-Dec-01 06:30N 53°29' E 008°29'0 0.0
2017-Dec-01 06:00N 53°29' E 008°29'0 0.0
2017-Dec-01 05:30N 53°29' E 008°29'0 0.0
2017-Dec-01 05:00N 53°29' E 008°29'0 0.0
2017-Dec-01 04:30N 53°29' E 008°29'0 0.0
2017-Dec-01 04:00N 53°29' E 008°29'0 0.0
2017-Dec-01 03:27N 53°29' E 008°29'0 0.0
2017-Dec-01 02:59N 53°29' E 008°29'0 0.0
2017-Dec-01 02:30N 53°29' E 008°29'0 0.0
2017-Dec-01 02:00N 53°29' E 008°29'0 0.0
2017-Dec-01 01:30N 53°29' E 008°29'0 0.0
2017-Dec-01 01:00N 53°29' E 008°29'0 0.0
2017-Dec-01 00:30N 53°29' E 008°29'0 0.0
2017-Nov-30 23:59N 53°29' E 008°29'0 0.0
2017-Nov-30 23:29N 53°29' E 008°29'0 0.0
2017-Nov-30 23:00N 53°29' E 008°29'0 0.0
2017-Nov-30 22:30N 53°29' E 008°29'0 0.0
2017-Nov-30 22:00N 53°29' E 008°29'0 0.0
2017-Nov-30 21:27N 53°29' E 008°29'0 0.0
2017-Nov-30 21:00N 53°29' E 008°29'0 0.0
2017-Nov-30 20:30N 53°29' E 008°29'0 0.0
2017-Nov-30 19:59N 53°29' E 008°29'0 0.0
2017-Nov-30 19:29N 53°29' E 008°29'0 0.0
2017-Nov-30 18:59N 53°29' E 008°29'0 0.0
2017-Nov-30 18:30N 53°29' E 008°29'0 0.0
2017-Nov-30 17:59N 53°29' E 008°29'0 0.0
2017-Nov-30 17:29N 53°29' E 008°29'  
Track history (hours):
 
Tides and Currents Weather Stations Pressure Air Temp Water Temp Dewpoint Dewpoint Depression Visibility Wind Speed Wind Dir Waves Ship Positions

Lecko

Last reported at 2017-Dec-10 17:24 UTC. Time now 2017-Dec-12 10:36 UTC.
Position N 58°36' E 012°41'.

Length 89 m; draft 5.4 m.

Type: Cargo ship. MMSI: 244063000.

Date/timePositionNaut miles runAvg speedWind from/ knotsBaromVisibWave heightAir tempDewpointWater temp
2017-Dec-10 17:24N 58°36' E 012°41'410.5
2017-Dec-10 17:00N 58°33' E 012°36'510.3
2017-Dec-10 16:30N 58°29' E 012°30'5 9.9
2017-Dec-10 16:00N 58°26' E 012°22'4 7.5
2017-Dec-10 15:30N 58°23' E 012°19'2 5.0
2017-Dec-10 15:00N 58°21' E 012°21'0 0.8
2017-Dec-10 14:30N 58°20' E 012°21'3 6.5
2017-Dec-10 14:00N 58°18' E 012°18'2 3.7
2017-Dec-10 13:30N 58°16' E 012°16'0 0.5
2017-Dec-10 13:00N 58°16' E 012°15'0 0.2
2017-Dec-10 12:30N 58°16' E 012°15'1 1.7
2017-Dec-10 12:00N 58°15' E 012°14'4 7.5
2017-Dec-10 11:30N 58°13' E 012°09'4 7.4
2017-Dec-10 11:00N 58°09' E 012°08'1 1.9
2017-Dec-10 10:30N 58°08' E 012°07'3 5.3
2017-Dec-10 10:00N 58°06' E 012°09'5 7.1
2017-Dec-10 09:21N 58°01' E 012°09'3 7.5
2017-Dec-10 09:01N 57°59' E 012°08'4 7.2
2017-Dec-10 08:30N 57°56' E 012°04'4 8.1
2017-Dec-10 08:00N 57°52' E 012°01'3 6.2
2017-Dec-10 07:30N 57°49' E 012°01'3 6.1
2017-Dec-10 07:00N 57°46' E 012°00'3 5.6
2017-Dec-10 06:30N 57°43' E 011°58'4 7.5
2017-Dec-10 06:00N 57°41' E 011°52'4 7.3
2017-Dec-10 05:30N 57°40' E 011°46'4 7.7
2017-Dec-10 05:00N 57°37' E 011°41'4 8.1
2017-Dec-10 04:30N 57°34' E 011°36'3 6.8
2017-Dec-10 04:00N 57°33' E 011°30'4 7.1
2017-Dec-10 03:30N 57°32' E 011°24'4 7.3
2017-Dec-10 03:00N 57°31' E 011°18'4 8.0
2017-Dec-10 02:30N 57°29' E 011°11'4 7.7
2017-Dec-10 02:00N 57°28' E 011°04'4 8.1
2017-Dec-10 01:30N 57°26' E 010°57'4 8.6
2017-Dec-10 01:00N 57°24' E 010°50'87 6.3
2017-Dec-09 11:09N 56°14' E 012°26'2 5.9
2017-Dec-09 10:45N 56°12' E 012°28'2 6.8
2017-Dec-09 10:30N 56°10' E 012°29'4 7.1
2017-Dec-09 10:00N 56°07' E 012°33'4 7.3
2017-Dec-09 09:30N 56°05' E 012°37'4 7.2
2017-Dec-09 09:00N 56°02' E 012°40'4 8.8
2017-Dec-09 08:30N 55°58' E 012°43'4 8.3
2017-Dec-09 08:00N 55°54' E 012°44'4 8.5
2017-Dec-09 07:30N 55°49' E 012°44'4 8.4
2017-Dec-09 07:00N 55°45' E 012°42'4 8.5
2017-Dec-09 06:30N 55°41' E 012°41'4 7.9
2017-Dec-09 06:00N 55°37' E 012°42'4 7.6
2017-Dec-09 05:31N 55°33' E 012°42'3 6.8
2017-Dec-09 05:00N 55°30' E 012°43'4 8.0
2017-Dec-09 04:30N 55°26' E 012°42'4 8.4
2017-Dec-09 04:00N 55°22' E 012°41'4 8.2
2017-Dec-09 03:30N 55°18' E 012°40'4 8.2
2017-Dec-09 03:00N 55°13' E 012°40'39 8.7
2017-Dec-08 22:28N 54°36' E 012°21'13 9.2
2017-Dec-08 21:04N 54°24' E 012°10'1 9.6
2017-Dec-08 21:00N 54°24' E 012°09'5 9.5
2017-Dec-08 20:30N 54°21' E 012°03'5 9.3
2017-Dec-08 20:00N 54°18' E 011°57'22 9.3
2017-Dec-08 17:41N 54°05' E 011°27'2 8.6
2017-Dec-08 17:30N 54°04' E 011°27'5 9.7
2017-Dec-08 17:00N 54°01' E 011°20'4 8.2
2017-Dec-08 16:30N 53°57' E 011°23'4 7.5
2017-Dec-08 16:00N 53°54' E 011°27'1 1.0
2017-Dec-08 15:28N 53°54' E 011°28'0 0.0
2017-Dec-08 15:00N 53°54' E 011°28'0 0.0
2017-Dec-08 14:30N 53°54' E 011°28'0 0.0
2017-Dec-08 14:00N 53°54' E 011°28'0 0.0
2017-Dec-08 13:30N 53°54' E 011°28'0 0.0
2017-Dec-08 13:00N 53°54' E 011°28'0 0.0
2017-Dec-08 12:30N 53°54' E 011°28'0 0.0
2017-Dec-08 12:00N 53°54' E 011°28'0 0.0
2017-Dec-08 11:30N 53°54' E 011°28'0 0.0
2017-Dec-08 11:00N 53°54' E 011°28'0 0.0
2017-Dec-08 10:30N 53°54' E 011°28'0 0.0
2017-Dec-08 10:00N 53°54' E 011°28'0 0.0
2017-Dec-08 09:30N 53°54' E 011°28'0 0.0
2017-Dec-08 09:00N 53°54' E 011°28'0 0.0
2017-Dec-08 08:30N 53°54' E 011°28'0 0.0
2017-Dec-08 08:00N 53°54' E 011°28'0 0.0
2017-Dec-08 07:30N 53°54' E 011°28'0 0.0
2017-Dec-08 07:00N 53°54' E 011°28'0 0.0
2017-Dec-08 06:30N 53°54' E 011°28'0 0.0
2017-Dec-08 06:00N 53°54' E 011°28'0 0.0
2017-Dec-08 05:30N 53°54' E 011°28'0 0.0
2017-Dec-08 05:00N 53°54' E 011°28'0 0.0
2017-Dec-08 04:30N 53°54' E 011°28'0 0.0
2017-Dec-08 04:00N 53°54' E 011°28'0 0.0
2017-Dec-08 03:30N 53°54' E 011°28'0 0.0
2017-Dec-08 03:00N 53°54' E 011°28'0 0.0
2017-Dec-08 02:29N 53°54' E 011°28'0 0.0
2017-Dec-08 02:00N 53°54' E 011°28'0 0.0
2017-Dec-08 01:30N 53°54' E 011°28'0 0.0
2017-Dec-08 01:00N 53°54' E 011°28'0 0.0
2017-Dec-08 00:30N 53°54' E 011°28'0 0.0
2017-Dec-08 00:00N 53°54' E 011°28'0 0.0
2017-Dec-07 23:30N 53°54' E 011°28'0 0.0
2017-Dec-07 23:00N 53°54' E 011°28'0 0.0
2017-Dec-07 22:30N 53°54' E 011°28'0 0.0
2017-Dec-07 22:00N 53°54' E 011°28'0 0.0
2017-Dec-07 21:30N 53°54' E 011°28'0 0.0
2017-Dec-07 21:00N 53°54' E 011°28'0 0.0
2017-Dec-07 20:30N 53°54' E 011°28'0 0.0
2017-Dec-07 20:00N 53°54' E 011°28'0 0.0
2017-Dec-07 19:30N 53°54' E 011°28'0 0.0
2017-Dec-07 19:00N 53°54' E 011°28'0 0.0
2017-Dec-07 18:30N 53°54' E 011°28'0 0.0
2017-Dec-07 18:00N 53°54' E 011°28'0 0.0
2017-Dec-07 17:30N 53°54' E 011°28'0 0.0
2017-Dec-07 17:00N 53°54' E 011°28'0 0.1
2017-Dec-07 16:30N 53°54' E 011°28'1 3.0
2017-Dec-07 16:00N 53°55' E 011°26'5 9.7
2017-Dec-07 15:30N 53°59' E 011°21'4 8.6
2017-Dec-07 15:00N 54°03' E 011°25'23 9.9
2017-Dec-07 12:44N 54°25' E 011°22'210.0
2017-Dec-07 12:30N 54°28' E 011°21'510.1
2017-Dec-07 12:00N 54°32' E 011°19'611.4
2017-Dec-07 11:30N 54°34' E 011°09'611.2
2017-Dec-07 11:00N 54°35' E 010°60'611.1
2017-Dec-07 10:30N 54°34' E 010°50'611.0
2017-Dec-07 10:00N 54°34' E 010°41'31 6.8
2017-Dec-07 05:23N 54°22' E 009°51'3 7.9
2017-Dec-07 04:59N 54°21' E 009°46'4 8.0
2017-Dec-07 04:30N 54°18' E 009°42'3 6.3
2017-Dec-07 04:00N 54°16' E 009°37'1 1.6
2017-Dec-07 03:31N 54°15' E 009°37'3 5.9
2017-Dec-07 03:00N 54°12' E 009°34'4 8.3
2017-Dec-07 02:30N 54°11' E 009°28'2 4.0
2017-Dec-07 02:00N 54°10' E 009°25'5 7.3
2017-Dec-07 01:22N 54°06' E 009°20'3 8.3
2017-Dec-07 01:00N 54°03' E 009°18'2 3.2
2017-Dec-07 00:30N 54°02' E 009°18'2 4.3
2017-Dec-07 00:00N 53°60' E 009°17'2 4.4
2017-Dec-06 23:31N 53°58' E 009°15'4 7.2
2017-Dec-06 23:01N 53°55' E 009°11'2 4.1
2017-Dec-06 22:30N 53°54' E 009°09'0 0.2
2017-Dec-06 22:01N 53°54' E 009°09'2 3.5
2017-Dec-06 21:31N 53°53' E 009°06'2 4.3
2017-Dec-06 21:00N 53°52' E 009°02'  
2017-Dec-04 10:24N 53°30' E 008°31'0 0.0
2017-Dec-04 10:00N 53°30' E 008°31'0 0.0
2017-Dec-04 09:30N 53°30' E 008°31'0 0.0
2017-Dec-04 09:00N 53°30' E 008°31'0 0.0
2017-Dec-04 08:30N 53°30' E 008°31'0 0.0
2017-Dec-04 08:00N 53°30' E 008°31'0 0.0
2017-Dec-04 07:30N 53°30' E 008°31'0 0.0
2017-Dec-04 07:00N 53°30' E 008°31'0 0.0
2017-Dec-04 06:30N 53°30' E 008°31'0 0.0
2017-Dec-04 06:00N 53°30' E 008°31'0 0.0
2017-Dec-04 05:30N 53°30' E 008°31'0 0.0
2017-Dec-04 05:00N 53°30' E 008°31'0 0.0
2017-Dec-04 04:30N 53°30' E 008°31'0 0.0
2017-Dec-04 04:00N 53°30' E 008°31'0 0.0
2017-Dec-04 03:30N 53°30' E 008°31'0 0.0
2017-Dec-04 03:00N 53°30' E 008°31'0 0.0
2017-Dec-04 02:30N 53°30' E 008°31'0 0.0
2017-Dec-04 02:00N 53°30' E 008°31'0 0.0
2017-Dec-04 01:30N 53°30' E 008°31'0 0.0
2017-Dec-04 01:00N 53°30' E 008°31'0 0.0
2017-Dec-04 00:30N 53°30' E 008°31'0 0.0
2017-Dec-04 00:00N 53°30' E 008°31'0 0.0
2017-Dec-03 23:30N 53°30' E 008°31'0 0.0
2017-Dec-03 23:00N 53°30' E 008°31'0 0.0
2017-Dec-03 22:30N 53°30' E 008°31'0 0.0
2017-Dec-03 22:00N 53°30' E 008°31'0 0.0
2017-Dec-03 21:30N 53°30' E 008°31'0 0.0
2017-Dec-03 21:00N 53°30' E 008°31'0 0.0
2017-Dec-03 20:30N 53°30' E 008°31'0 0.0
2017-Dec-03 20:00N 53°30' E 008°31'0 0.0
2017-Dec-03 19:30N 53°30' E 008°31'0 0.0
2017-Dec-03 19:00N 53°30' E 008°31'0 0.0
2017-Dec-03 18:30N 53°30' E 008°31'0 0.0
2017-Dec-03 18:00N 53°30' E 008°31'0 0.0
2017-Dec-03 17:30N 53°30' E 008°31'0 0.0
2017-Dec-03 17:00N 53°30' E 008°31'0 0.0
2017-Dec-03 16:30N 53°30' E 008°31'0 0.0
2017-Dec-03 16:00N 53°30' E 008°31'0 0.0
2017-Dec-03 15:30N 53°30' E 008°31'0 0.0
2017-Dec-03 15:00N 53°30' E 008°31'0 0.0
2017-Dec-03 14:30N 53°30' E 008°31'0 0.0
2017-Dec-03 14:00N 53°30' E 008°31'0 0.0
2017-Dec-03 13:30N 53°30' E 008°31'0 0.0
2017-Dec-03 13:00N 53°30' E 008°31'0 0.0
2017-Dec-03 12:30N 53°30' E 008°31'0 0.0
2017-Dec-03 12:00N 53°30' E 008°31'0 0.0
2017-Dec-03 11:30N 53°30' E 008°31'0 0.0
2017-Dec-03 11:00N 53°30' E 008°31'0 0.0
2017-Dec-03 10:30N 53°30' E 008°31'0 0.0
2017-Dec-03 10:00N 53°30' E 008°31'0 0.0
2017-Dec-03 09:30N 53°30' E 008°31'0 0.0
2017-Dec-03 09:00N 53°30' E 008°31'0 0.0
2017-Dec-03 08:30N 53°30' E 008°31'0 0.0
2017-Dec-03 08:00N 53°30' E 008°31'0 0.0
2017-Dec-03 07:30N 53°30' E 008°31'0 0.0
2017-Dec-03 07:00N 53°30' E 008°31'0 0.0
2017-Dec-03 06:30N 53°30' E 008°31'0 0.0
2017-Dec-03 06:00N 53°30' E 008°31'0 0.0
2017-Dec-03 05:30N 53°30' E 008°31'0 0.0
2017-Dec-03 05:00N 53°30' E 008°31'0 0.0
2017-Dec-03 04:30N 53°30' E 008°31'0 0.0
2017-Dec-03 04:00N 53°30' E 008°31'0 0.0
2017-Dec-03 03:30N 53°30' E 008°31'0 0.0
2017-Dec-03 03:00N 53°30' E 008°31'0 0.0
2017-Dec-03 02:30N 53°30' E 008°31'0 0.0
2017-Dec-03 02:00N 53°30' E 008°31'0 0.0
2017-Dec-03 01:30N 53°30' E 008°31'0 0.0
2017-Dec-03 01:00N 53°30' E 008°31'0 0.0
2017-Dec-03 00:30N 53°30' E 008°31'0 0.0
2017-Dec-03 00:00N 53°30' E 008°31'0 0.0
2017-Dec-02 23:30N 53°30' E 008°31'0 0.0
2017-Dec-02 23:00N 53°30' E 008°31'0 0.0
2017-Dec-02 22:30N 53°30' E 008°31'0 0.0
2017-Dec-02 22:00N 53°30' E 008°31'0 0.0
2017-Dec-02 21:27N 53°30' E 008°31'0 0.0
2017-Dec-02 21:00N 53°30' E 008°31'0 0.0
2017-Dec-02 20:27N 53°30' E 008°31'0 0.0
2017-Dec-02 20:00N 53°30' E 008°31'0 0.0
2017-Dec-02 19:30N 53°30' E 008°31'0 0.0
2017-Dec-02 19:00N 53°30' E 008°31'0 0.0
2017-Dec-02 18:30N 53°30' E 008°31'0 0.0
2017-Dec-02 18:00N 53°30' E 008°31'0 0.0
2017-Dec-02 17:30N 53°30' E 008°31'0 0.0
2017-Dec-02 17:00N 53°30' E 008°31'0 0.0
2017-Dec-02 16:30N 53°30' E 008°31'0 0.0
2017-Dec-02 16:00N 53°30' E 008°31'0 0.0
2017-Dec-02 15:30N 53°30' E 008°31'0 0.0
2017-Dec-02 15:00N 53°30' E 008°31'0 0.0
2017-Dec-02 14:30N 53°30' E 008°31'0 0.0
2017-Dec-02 14:00N 53°30' E 008°31'0 0.0
2017-Dec-02 13:30N 53°30' E 008°31'0 0.0
2017-Dec-02 13:00N 53°30' E 008°31'0 0.0
2017-Dec-02 12:30N 53°30' E 008°31'0 0.0
2017-Dec-02 12:00N 53°30' E 008°31'0 0.0
2017-Dec-02 11:30N 53°30' E 008°31'0 0.0
2017-Dec-02 11:00N 53°30' E 008°31'0 0.0
2017-Dec-02 10:30N 53°30' E 008°31'0 0.0
2017-Dec-02 09:59N 53°30' E 008°31'0 0.0
2017-Dec-02 09:30N 53°30' E 008°31'0 0.0
2017-Dec-02 08:59N 53°30' E 008°31'0 0.0
2017-Dec-02 08:30N 53°30' E 008°31'0 0.0
2017-Dec-02 07:59N 53°30' E 008°31'0 0.0
2017-Dec-02 07:29N 53°30' E 008°31'0 0.0
2017-Dec-02 07:00N 53°30' E 008°31'0 0.0
2017-Dec-02 06:29N 53°30' E 008°31'0 0.0
2017-Dec-02 06:00N 53°30' E 008°31'0 0.0
2017-Dec-02 05:26N 53°30' E 008°31'0 0.0
2017-Dec-02 05:00N 53°30' E 008°31'0 0.0
2017-Dec-02 04:29N 53°30' E 008°31'0 0.0
2017-Dec-02 03:59N 53°30' E 008°31'0 0.0
2017-Dec-02 03:29N 53°30' E 008°31'0 0.0
2017-Dec-02 03:00N 53°30' E 008°31'0 0.0
2017-Dec-02 02:30N 53°30' E 008°31'0 0.0
2017-Dec-02 01:53N 53°30' E 008°31'0 0.0
2017-Dec-02 01:27N 53°30' E 008°31'0 0.0
2017-Dec-02 00:59N 53°30' E 008°31'0 0.0
2017-Dec-02 00:29N 53°30' E 008°31'0 0.0
2017-Dec-01 23:59N 53°30' E 008°31'0 0.0
2017-Dec-01 23:30N 53°30' E 008°31'0 0.0
2017-Dec-01 22:59N 53°30' E 008°31'0 0.0
2017-Dec-01 22:29N 53°30' E 008°31'0 0.0
2017-Dec-01 21:59N 53°30' E 008°31'0 0.0
2017-Dec-01 21:29N 53°30' E 008°31'0 0.0
2017-Dec-01 20:59N 53°30' E 008°31'0 0.0
2017-Dec-01 20:30N 53°30' E 008°31'0 0.0
2017-Dec-01 19:59N 53°30' E 008°31'0 0.0
2017-Dec-01 19:29N 53°30' E 008°31'0 0.0
2017-Dec-01 19:00N 53°30' E 008°31'0 0.0
2017-Dec-01 18:30N 53°30' E 008°31'0 0.0
2017-Dec-01 17:59N 53°30' E 008°31'0 0.0
2017-Dec-01 17:30N 53°30' E 008°31'0 0.0
2017-Dec-01 16:59N 53°30' E 008°31'0 0.0
2017-Dec-01 16:29N 53°30' E 008°31'0 0.0
2017-Dec-01 15:59N 53°30' E 008°31'0 0.0
2017-Dec-01 15:29N 53°30' E 008°31'0 0.0
2017-Dec-01 14:59N 53°30' E 008°31'0 0.0
2017-Dec-01 14:29N 53°30' E 008°31'0 0.0
2017-Dec-01 13:59N 53°30' E 008°31'0 0.0
2017-Dec-01 13:26N 53°30' E 008°31'0 0.0
2017-Dec-01 12:59N 53°30' E 008°31'0 0.0
2017-Dec-01 12:29N 53°30' E 008°31'0 0.0
2017-Dec-01 11:59N 53°30' E 008°31'0 0.0
2017-Dec-01 11:30N 53°30' E 008°31'1 2.8
2017-Dec-01 11:00N 53°29' E 008°29'0 0.0
2017-Dec-01 10:30N 53°29' E 008°29'0 0.0
2017-Dec-01 10:00N 53°29' E 008°29'0 0.0
2017-Dec-01 09:30N 53°29' E 008°29'0 0.0
2017-Dec-01 09:00N 53°29' E 008°29'0 0.0
2017-Dec-01 08:30N 53°29' E 008°29'0 0.0
2017-Dec-01 08:00N 53°29' E 008°29'0 0.0
2017-Dec-01 07:30N 53°29' E 008°29'0 0.0
2017-Dec-01 06:59N 53°29' E 008°29'0 0.0
2017-Dec-01 06:30N 53°29' E 008°29'0 0.0
2017-Dec-01 06:00N 53°29' E 008°29'0 0.0
2017-Dec-01 05:30N 53°29' E 008°29'0 0.0
2017-Dec-01 05:00N 53°29' E 008°29'0 0.0
2017-Dec-01 04:30N 53°29' E 008°29'0 0.0
2017-Dec-01 04:00N 53°29' E 008°29'0 0.0
2017-Dec-01 03:27N 53°29' E 008°29'0 0.0
2017-Dec-01 02:59N 53°29' E 008°29'0 0.0
2017-Dec-01 02:30N 53°29' E 008°29'0 0.0
2017-Dec-01 02:00N 53°29' E 008°29'0 0.0
2017-Dec-01 01:30N 53°29' E 008°29'0 0.0
2017-Dec-01 01:00N 53°29' E 008°29'0 0.0
2017-Dec-01 00:30N 53°29' E 008°29'0 0.0
2017-Nov-30 23:59N 53°29' E 008°29'0 0.0
2017-Nov-30 23:29N 53°29' E 008°29'0 0.0
2017-Nov-30 23:00N 53°29' E 008°29'0 0.0
2017-Nov-30 22:30N 53°29' E 008°29'0 0.0
2017-Nov-30 22:00N 53°29' E 008°29'0 0.0
2017-Nov-30 21:27N 53°29' E 008°29'0 0.0
2017-Nov-30 21:00N 53°29' E 008°29'0 0.0
2017-Nov-30 20:30N 53°29' E 008°29'0 0.0
2017-Nov-30 19:59N 53°29' E 008°29'0 0.0
2017-Nov-30 19:29N 53°29' E 008°29'0 0.0
2017-Nov-30 18:59N 53°29' E 008°29'0 0.0
2017-Nov-30 18:30N 53°29' E 008°29'0 0.0
2017-Nov-30 17:59N 53°29' E 008°29'0 0.0
2017-Nov-30 17:29N 53°29' E 008°29'  

Dump ship's entire track history